This is the latest recevied weather packets stored in our database for station/object DG4CB-13. If no packets are shown the sender has not sent any weather packets the latest 10 day(s).
| Time | Temp. | Humidity | Pressure | Rain* | Wind** | Luminosity | Snow |
|---|---|---|---|---|---|---|---|
| 1777532400 | 7.78° C | 42% | 1028.9 hPa | - | - | - | - |
| 1777531800 | 7.22° C | 45% | 1029 hPa | - | - | - | - |
| 1777531200 | 6.67° C | 46% | 1029 hPa | - | - | - | - |
| 1777530600 | 6.11° C | 46% | 1028.8 hPa | - | - | - | - |
| 1777530000 | 5.56° C | 48% | 1028.7 hPa | - | - | - | - |
| 1777529400 | 5° C | 49% | 1028.7 hPa | - | - | - | - |
| 1777528800 | 4.44° C | 50% | 1028.7 hPa | - | - | - | - |
| 1777528200 | 3.89° C | 51% | 1028.8 hPa | - | - | - | - |
| 1777527600 | 3.33° C | 53% | 1028.7 hPa | - | - | - | - |
| 1777527000 | 3.33° C | 55% | 1028.6 hPa | - | - | - | - |
| 1777526400 | 2.78° C | 55% | 1028.6 hPa | - | - | - | - |
| 1777525800 | 2.78° C | 55% | 1028.6 hPa | - | - | - | - |
| 1777525200 | 2.22° C | 56% | 1028.5 hPa | - | - | - | - |
| 1777524600 | 2.22° C | 56% | 1028.4 hPa | - | - | - | - |
| 1777524000 | 2.22° C | 56% | 1028.4 hPa | - | - | - | - |
| 1777523400 | 2.22° C | 56% | 1028.3 hPa | - | - | - | - |
| 1777522800 | 2.22° C | 57% | 1028.1 hPa | - | - | - | - |
| 1777522200 | 2.22° C | 56% | 1028 hPa | - | - | - | - |
| 1777521600 | 2.78° C | 54% | 1027.9 hPa | - | - | - | - |
| 1777521000 | 2.78° C | 55% | 1027.9 hPa | - | - | - | - |
| 1777520400 | 2.78° C | 54% | 1027.9 hPa | - | - | - | - |
| 1777519800 | 3.33° C | 54% | 1027.9 hPa | - | - | - | - |
| 1777519200 | 3.33° C | 53% | 1027.9 hPa | - | - | - | - |
| 1777518600 | 3.33° C | 52% | 1027.9 hPa | - | - | - | - |
| 1777518000 | 3.33° C | 52% | 1027.8 hPa | - | - | - | - |
* Rain since midnight (hover to see other rain measurements)
** Current wind speed in m/s (hover to see current wind gust speed)